sensor_id;sensor_type;location;lat;lon;timestamp;P1;durP1;ratioP1;P2;durP2;ratioP2
1993;SDS011;998;49.906;10.908;2022-11-20T00:01:33;23.10;;;13.13;;
1993;SDS011;998;49.906;10.908;2022-11-20T00:04:01;24.57;;;12.83;;
1993;SDS011;998;49.906;10.908;2022-11-20T00:06:28;20.03;;;12.67;;
1993;SDS011;998;49.906;10.908;2022-11-20T00:08:56;28.40;;;14.40;;
1993;SDS011;998;49.906;10.908;2022-11-20T00:11:25;25.20;;;13.50;;
1993;SDS011;998;49.906;10.908;2022-11-20T00:13:55;25.50;;;14.10;;
1993;SDS011;998;49.906;10.908;2022-11-20T00:16:23;26.03;;;13.70;;
1993;SDS011;998;49.906;10.908;2022-11-20T00:18:53;22.70;;;13.17;;
1993;SDS011;998;49.906;10.908;2022-11-20T00:21:21;22.93;;;13.47;;
1993;SDS011;998;49.906;10.908;2022-11-20T00:23:50;24.87;;;13.20;;
1993;SDS011;998;49.906;10.908;2022-11-20T00:26:18;20.80;;;13.50;;
1993;SDS011;998;49.906;10.908;2022-11-20T00:28:49;21.90;;;12.90;;
1993;SDS011;998;49.906;10.908;2022-11-20T00:31:17;18.37;;;12.03;;
1993;SDS011;998;49.906;10.908;2022-11-20T00:33:44;19.10;;;11.43;;
1993;SDS011;998;49.906;10.908;2022-11-20T00:36:14;21.13;;;11.70;;
1993;SDS011;998;49.906;10.908;2022-11-20T00:38:44;22.67;;;12.00;;
1993;SDS011;998;49.906;10.908;2022-11-20T00:41:12;21.03;;;12.33;;
1993;SDS011;998;49.906;10.908;2022-11-20T00:43:40;27.67;;;13.60;;
1993;SDS011;998;49.906;10.908;2022-11-20T00:46:09;22.50;;;13.40;;
1993;SDS011;998;49.906;10.908;2022-11-20T00:48:38;21.60;;;12.10;;
1993;SDS011;998;49.906;10.908;2022-11-20T00:51:05;22.03;;;12.30;;
1993;SDS011;998;49.906;10.908;2022-11-20T00:53:34;21.50;;;13.47;;
1993;SDS011;998;49.906;10.908;2022-11-20T00:56:02;22.57;;;12.87;;
1993;SDS011;998;49.906;10.908;2022-11-20T00:58:31;20.00;;;11.83;;
1993;SDS011;998;49.906;10.908;2022-11-20T01:01:00;22.10;;;13.67;;
1993;SDS011;998;49.906;10.908;2022-11-20T01:03:30;26.20;;;14.37;;
1993;SDS011;998;49.906;10.908;2022-11-20T01:05:59;19.97;;;12.63;;
1993;SDS011;998;49.906;10.908;2022-11-20T01:08:29;22.37;;;13.67;;
1993;SDS011;998;49.906;10.908;2022-11-20T01:11:00;25.67;;;13.77;;
1993;SDS011;998;49.906;10.908;2022-11-20T01:13:29;25.00;;;11.90;;
1993;SDS011;998;49.906;10.908;2022-11-20T01:16:06;23.13;;;12.60;;
1993;SDS011;998;49.906;10.908;2022-11-20T01:18:35;25.80;;;14.50;;
1993;SDS011;998;49.906;10.908;2022-11-20T01:21:03;21.03;;;12.50;;
1993;SDS011;998;49.906;10.908;2022-11-20T01:23:32;25.23;;;13.20;;
1993;SDS011;998;49.906;10.908;2022-11-20T01:26:03;30.73;;;14.30;;
1993;SDS011;998;49.906;10.908;2022-11-20T01:28:32;25.80;;;13.77;;
1993;SDS011;998;49.906;10.908;2022-11-20T01:30:59;22.55;;;13.27;;
1993;SDS011;998;49.906;10.908;2022-11-20T01:33:27;24.93;;;13.87;;
1993;SDS011;998;49.906;10.908;2022-11-20T01:36:02;23.05;;;14.57;;
1993;SDS011;998;49.906;10.908;2022-11-20T01:38:30;19.95;;;13.20;;
1993;SDS011;998;49.906;10.908;2022-11-20T01:40:57;25.83;;;14.23;;
1993;SDS011;998;49.906;10.908;2022-11-20T01:43:26;21.20;;;12.30;;
1993;SDS011;998;49.906;10.908;2022-11-20T01:45:59;21.10;;;13.70;;
1993;SDS011;998;49.906;10.908;2022-11-20T01:48:40;32.87;;;17.20;;
1993;SDS011;998;49.906;10.908;2022-11-20T01:51:15;23.87;;;15.60;;
1993;SDS011;998;49.906;10.908;2022-11-20T01:53:47;26.13;;;13.57;;
1993;SDS011;998;49.906;10.908;2022-11-20T01:56:16;26.30;;;15.20;;
1993;SDS011;998;49.906;10.908;2022-11-20T01:58:47;21.13;;;12.63;;
1993;SDS011;998;49.906;10.908;2022-11-20T02:01:17;19.70;;;11.47;;
1993;SDS011;998;49.906;10.908;2022-11-20T02:03:44;22.20;;;11.90;;
1993;SDS011;998;49.906;10.908;2022-11-20T02:06:13;21.70;;;11.87;;
1993;SDS011;998;49.906;10.908;2022-11-20T02:08:45;26.47;;;14.17;;
1993;SDS011;998;49.906;10.908;2022-11-20T02:11:12;21.50;;;11.93;;
1993;SDS011;998;49.906;10.908;2022-11-20T02:13:39;19.90;;;12.33;;
1993;SDS011;998;49.906;10.908;2022-11-20T02:16:11;24.37;;;13.20;;
1993;SDS011;998;49.906;10.908;2022-11-20T02:18:41;21.57;;;13.40;;
1993;SDS011;998;49.906;10.908;2022-11-20T02:21:13;19.30;;;12.13;;
1993;SDS011;998;49.906;10.908;2022-11-20T02:26:41;28.17;;;13.10;;
1993;SDS011;998;49.906;10.908;2022-11-20T02:29:12;24.10;;;13.03;;
1993;SDS011;998;49.906;10.908;2022-11-20T02:31:42;28.83;;;13.07;;
1993;SDS011;998;49.906;10.908;2022-11-20T02:34:11;20.00;;;13.77;;
1993;SDS011;998;49.906;10.908;2022-11-20T02:36:39;23.07;;;14.57;;
1993;SDS011;998;49.906;10.908;2022-11-20T02:39:07;19.53;;;11.93;;
1993;SDS011;998;49.906;10.908;2022-11-20T02:41:37;24.17;;;13.77;;
1993;SDS011;998;49.906;10.908;2022-11-20T02:44:05;18.73;;;12.33;;
1993;SDS011;998;49.906;10.908;2022-11-20T02:46:33;25.70;;;12.97;;
1993;SDS011;998;49.906;10.908;2022-11-20T02:49:00;27.10;;;13.60;;
1993;SDS011;998;49.906;10.908;2022-11-20T02:51:29;20.43;;;12.37;;
1993;SDS011;998;49.906;10.908;2022-11-20T02:53:56;24.27;;;12.03;;
1993;SDS011;998;49.906;10.908;2022-11-20T02:56:24;21.77;;;14.07;;
1993;SDS011;998;49.906;10.908;2022-11-20T02:58:53;22.83;;;14.80;;
1993;SDS011;998;49.906;10.908;2022-11-20T03:01:21;19.37;;;11.70;;
1993;SDS011;998;49.906;10.908;2022-11-20T03:03:48;34.60;;;18.23;;
1993;SDS011;998;49.906;10.908;2022-11-20T03:06:17;22.00;;;13.43;;
1993;SDS011;998;49.906;10.908;2022-11-20T03:08:44;22.50;;;11.93;;
1993;SDS011;998;49.906;10.908;2022-11-20T03:11:11;23.20;;;14.00;;
1993;SDS011;998;49.906;10.908;2022-11-20T03:13:38;22.10;;;13.67;;
1993;SDS011;998;49.906;10.908;2022-11-20T03:16:11;22.33;;;13.87;;
1993;SDS011;998;49.906;10.908;2022-11-20T03:18:41;18.90;;;12.13;;
1993;SDS011;998;49.906;10.908;2022-11-20T03:21:09;24.70;;;13.40;;
1993;SDS011;998;49.906;10.908;2022-11-20T03:23:37;24.10;;;14.43;;
1993;SDS011;998;49.906;10.908;2022-11-20T03:26:09;25.27;;;13.43;;
1993;SDS011;998;49.906;10.908;2022-11-20T03:28:37;23.83;;;12.50;;
1993;SDS011;998;49.906;10.908;2022-11-20T03:31:06;28.17;;;13.47;;
1993;SDS011;998;49.906;10.908;2022-11-20T03:33:36;20.97;;;13.00;;
1993;SDS011;998;49.906;10.908;2022-11-20T03:36:04;25.17;;;14.40;;
1993;SDS011;998;49.906;10.908;2022-11-20T03:38:33;20.87;;;12.10;;
1993;SDS011;998;49.906;10.908;2022-11-20T03:41:02;22.83;;;12.00;;
1993;SDS011;998;49.906;10.908;2022-11-20T03:43:30;26.07;;;16.17;;
1993;SDS011;998;49.906;10.908;2022-11-20T03:45:58;28.80;;;15.20;;
1993;SDS011;998;49.906;10.908;2022-11-20T03:48:26;23.30;;;13.83;;
1993;SDS011;998;49.906;10.908;2022-11-20T03:51:07;23.73;;;12.90;;
1993;SDS011;998;49.906;10.908;2022-11-20T03:53:35;24.27;;;13.57;;
1993;SDS011;998;49.906;10.908;2022-11-20T03:56:03;23.77;;;14.20;;
1993;SDS011;998;49.906;10.908;2022-11-20T03:58:32;20.20;;;12.77;;
1993;SDS011;998;49.906;10.908;2022-11-20T04:01:03;18.83;;;12.90;;
1993;SDS011;998;49.906;10.908;2022-11-20T04:03:32;17.07;;;11.50;;
1993;SDS011;998;49.906;10.908;2022-11-20T04:06:01;23.00;;;12.57;;
1993;SDS011;998;49.906;10.908;2022-11-20T04:08:31;23.37;;;12.50;;
1993;SDS011;998;49.906;10.908;2022-11-20T04:11:07;22.80;;;12.87;;
1993;SDS011;998;49.906;10.908;2022-11-20T04:13:39;26.77;;;13.87;;
1993;SDS011;998;49.906;10.908;2022-11-20T04:16:07;19.03;;;12.57;;
1993;SDS011;998;49.906;10.908;2022-11-20T04:18:35;23.07;;;12.23;;
1993;SDS011;998;49.906;10.908;2022-11-20T04:21:04;22.37;;;13.27;;
1993;SDS011;998;49.906;10.908;2022-11-20T04:23:33;20.47;;;12.47;;
1993;SDS011;998;49.906;10.908;2022-11-20T04:26:01;21.97;;;12.90;;
1993;SDS011;998;49.906;10.908;2022-11-20T04:28:29;25.63;;;14.13;;
1993;SDS011;998;49.906;10.908;2022-11-20T04:31:04;21.77;;;12.07;;
1993;SDS011;998;49.906;10.908;2022-11-20T04:33:32;18.93;;;12.30;;
1993;SDS011;998;49.906;10.908;2022-11-20T04:36:02;21.93;;;12.30;;
1993;SDS011;998;49.906;10.908;2022-11-20T04:38:31;24.40;;;13.57;;
1993;SDS011;998;49.906;10.908;2022-11-20T04:41:01;24.00;;;11.70;;
1993;SDS011;998;49.906;10.908;2022-11-20T04:43:31;21.03;;;12.00;;
1993;SDS011;998;49.906;10.908;2022-11-20T04:45:59;24.43;;;13.80;;
1993;SDS011;998;49.906;10.908;2022-11-20T04:48:27;18.13;;;11.30;;
1993;SDS011;998;49.906;10.908;2022-11-20T04:50:55;24.60;;;13.87;;
1993;SDS011;998;49.906;10.908;2022-11-20T04:53:23;24.30;;;13.27;;
1993;SDS011;998;49.906;10.908;2022-11-20T04:55:53;23.67;;;13.80;;
1993;SDS011;998;49.906;10.908;2022-11-20T04:58:26;21.83;;;12.53;;
1993;SDS011;998;49.906;10.908;2022-11-20T05:00:54;22.13;;;11.57;;
1993;SDS011;998;49.906;10.908;2022-11-20T05:03:28;22.93;;;13.93;;
1993;SDS011;998;49.906;10.908;2022-11-20T05:05:56;23.63;;;13.00;;
1993;SDS011;998;49.906;10.908;2022-11-20T05:08:26;24.50;;;13.73;;
1993;SDS011;998;49.906;10.908;2022-11-20T05:10:58;22.00;;;12.40;;
1993;SDS011;998;49.906;10.908;2022-11-20T05:13:26;25.07;;;13.77;;
1993;SDS011;998;49.906;10.908;2022-11-20T05:15:54;23.60;;;12.97;;
1993;SDS011;998;49.906;10.908;2022-11-20T05:18:21;20.40;;;12.13;;
1993;SDS011;998;49.906;10.908;2022-11-20T05:20:54;22.77;;;13.40;;
1993;SDS011;998;49.906;10.908;2022-11-20T05:23:22;21.17;;;12.73;;
1993;SDS011;998;49.906;10.908;2022-11-20T05:25:51;24.13;;;14.67;;
1993;SDS011;998;49.906;10.908;2022-11-20T05:28:21;27.43;;;13.60;;
1993;SDS011;998;49.906;10.908;2022-11-20T05:30:49;22.20;;;12.10;;
1993;SDS011;998;49.906;10.908;2022-11-20T05:33:17;25.20;;;12.80;;
1993;SDS011;998;49.906;10.908;2022-11-20T05:35:44;23.33;;;11.60;;
1993;SDS011;998;49.906;10.908;2022-11-20T05:38:13;23.43;;;14.80;;
1993;SDS011;998;49.906;10.908;2022-11-20T05:40:40;20.37;;;12.07;;
1993;SDS011;998;49.906;10.908;2022-11-20T05:43:08;21.53;;;13.50;;
1993;SDS011;998;49.906;10.908;2022-11-20T05:45:37;22.67;;;13.53;;
1993;SDS011;998;49.906;10.908;2022-11-20T05:48:04;23.23;;;12.97;;
1993;SDS011;998;49.906;10.908;2022-11-20T05:50:31;23.67;;;12.87;;
1993;SDS011;998;49.906;10.908;2022-11-20T05:52:59;29.60;;;14.57;;
1993;SDS011;998;49.906;10.908;2022-11-20T05:55:27;23.00;;;11.90;;
1993;SDS011;998;49.906;10.908;2022-11-20T05:57:54;18.00;;;11.13;;
1993;SDS011;998;49.906;10.908;2022-11-20T06:00:21;23.10;;;13.77;;
1993;SDS011;998;49.906;10.908;2022-11-20T06:02:50;21.53;;;12.47;;
1993;SDS011;998;49.906;10.908;2022-11-20T06:05:18;18.23;;;12.40;;
1993;SDS011;998;49.906;10.908;2022-11-20T06:07:45;26.27;;;14.03;;
1993;SDS011;998;49.906;10.908;2022-11-20T06:10:12;21.30;;;12.73;;
1993;SDS011;998;49.906;10.908;2022-11-20T06:12:40;27.83;;;15.27;;
1993;SDS011;998;49.906;10.908;2022-11-20T06:15:07;20.70;;;12.13;;
1993;SDS011;998;49.906;10.908;2022-11-20T06:17:35;20.40;;;12.30;;
1993;SDS011;998;49.906;10.908;2022-11-20T06:20:05;19.53;;;13.80;;
1993;SDS011;998;49.906;10.908;2022-11-20T06:22:33;23.73;;;13.57;;
1993;SDS011;998;49.906;10.908;2022-11-20T06:25:00;20.50;;;12.27;;
1993;SDS011;998;49.906;10.908;2022-11-20T06:27:28;23.03;;;12.60;;
1993;SDS011;998;49.906;10.908;2022-11-20T06:29:55;20.97;;;12.27;;
1993;SDS011;998;49.906;10.908;2022-11-20T06:32:22;18.00;;;12.40;;
1993;SDS011;998;49.906;10.908;2022-11-20T06:34:50;22.30;;;13.53;;
1993;SDS011;998;49.906;10.908;2022-11-20T06:37:18;22.03;;;12.47;;
1993;SDS011;998;49.906;10.908;2022-11-20T06:39:46;20.53;;;12.07;;
1993;SDS011;998;49.906;10.908;2022-11-20T06:42:13;22.70;;;13.00;;
1993;SDS011;998;49.906;10.908;2022-11-20T06:44:41;27.83;;;13.73;;
1993;SDS011;998;49.906;10.908;2022-11-20T06:47:08;22.60;;;12.17;;
1993;SDS011;998;49.906;10.908;2022-11-20T06:49:35;22.70;;;12.43;;
1993;SDS011;998;49.906;10.908;2022-11-20T06:52:03;24.23;;;14.47;;
1993;SDS011;998;49.906;10.908;2022-11-20T06:54:32;26.50;;;13.80;;
1993;SDS011;998;49.906;10.908;2022-11-20T06:57:00;20.23;;;11.80;;
1993;SDS011;998;49.906;10.908;2022-11-20T06:59:27;21.10;;;12.40;;
1993;SDS011;998;49.906;10.908;2022-11-20T07:01:54;25.63;;;14.60;;
1993;SDS011;998;49.906;10.908;2022-11-20T07:04:22;21.30;;;12.30;;
1993;SDS011;998;49.906;10.908;2022-11-20T07:06:49;27.67;;;14.97;;
1993;SDS011;998;49.906;10.908;2022-11-20T07:09:16;20.47;;;12.80;;
1993;SDS011;998;49.906;10.908;2022-11-20T07:11:45;23.87;;;13.67;;
1993;SDS011;998;49.906;10.908;2022-11-20T07:14:13;32.37;;;14.67;;
1993;SDS011;998;49.906;10.908;2022-11-20T07:16:40;23.47;;;13.20;;
1993;SDS011;998;49.906;10.908;2022-11-20T07:19:07;17.97;;;12.23;;
1993;SDS011;998;49.906;10.908;2022-11-20T07:21:35;21.83;;;12.87;;
1993;SDS011;998;49.906;10.908;2022-11-20T07:24:02;21.30;;;12.33;;
1993;SDS011;998;49.906;10.908;2022-11-20T07:26:30;25.27;;;13.80;;
1993;SDS011;998;49.906;10.908;2022-11-20T07:28:59;22.17;;;14.43;;
1993;SDS011;998;49.906;10.908;2022-11-20T07:31:27;25.23;;;13.13;;
1993;SDS011;998;49.906;10.908;2022-11-20T07:33:54;18.40;;;12.93;;
1993;SDS011;998;49.906;10.908;2022-11-20T07:36:21;22.83;;;13.70;;
1993;SDS011;998;49.906;10.908;2022-11-20T07:38:49;18.60;;;13.03;;
1993;SDS011;998;49.906;10.908;2022-11-20T07:41:16;22.37;;;12.70;;
1993;SDS011;998;49.906;10.908;2022-11-20T07:43:44;22.60;;;13.20;;
1993;SDS011;998;49.906;10.908;2022-11-20T07:46:12;22.80;;;13.37;;
1993;SDS011;998;49.906;10.908;2022-11-20T07:48:40;23.37;;;14.10;;
1993;SDS011;998;49.906;10.908;2022-11-20T07:51:07;24.93;;;12.83;;
1993;SDS011;998;49.906;10.908;2022-11-20T07:53:35;19.60;;;12.00;;
1993;SDS011;998;49.906;10.908;2022-11-20T07:56:02;23.00;;;13.33;;
1993;SDS011;998;49.906;10.908;2022-11-20T07:58:30;21.40;;;13.43;;
1993;SDS011;998;49.906;10.908;2022-11-20T08:01:02;21.83;;;13.83;;
1993;SDS011;998;49.906;10.908;2022-11-20T08:03:31;20.67;;;11.83;;
1993;SDS011;998;49.906;10.908;2022-11-20T08:05:59;21.10;;;13.03;;
1993;SDS011;998;49.906;10.908;2022-11-20T08:08:27;21.57;;;12.90;;
1993;SDS011;998;49.906;10.908;2022-11-20T08:10:56;24.93;;;14.30;;
1993;SDS011;998;49.906;10.908;2022-11-20T08:13:43;24.00;;;13.00;;
1993;SDS011;998;49.906;10.908;2022-11-20T08:16:28;24.97;;;14.17;;
1993;SDS011;998;49.906;10.908;2022-11-20T08:18:56;24.40;;;15.47;;
1993;SDS011;998;49.906;10.908;2022-11-20T08:21:23;25.83;;;14.33;;
1993;SDS011;998;49.906;10.908;2022-11-20T08:23:51;24.80;;;14.33;;
1993;SDS011;998;49.906;10.908;2022-11-20T08:26:20;25.40;;;15.30;;
1993;SDS011;998;49.906;10.908;2022-11-20T08:28:48;26.03;;;15.50;;
1993;SDS011;998;49.906;10.908;2022-11-20T08:31:16;25.53;;;15.20;;
1993;SDS011;998;49.906;10.908;2022-11-20T08:33:43;20.37;;;13.00;;
1993;SDS011;998;49.906;10.908;2022-11-20T08:36:12;23.50;;;14.57;;
1993;SDS011;998;49.906;10.908;2022-11-20T08:38:40;21.63;;;12.97;;
1993;SDS011;998;49.906;10.908;2022-11-20T08:41:07;18.63;;;12.83;;
1993;SDS011;998;49.906;10.908;2022-11-20T08:43:55;21.33;;;12.40;;
1993;SDS011;998;49.906;10.908;2022-11-20T08:46:23;21.30;;;13.57;;
1993;SDS011;998;49.906;10.908;2022-11-20T08:48:52;28.80;;;14.40;;
1993;SDS011;998;49.906;10.908;2022-11-20T08:51:21;24.97;;;14.23;;
1993;SDS011;998;49.906;10.908;2022-11-20T08:53:49;24.17;;;13.77;;
1993;SDS011;998;49.906;10.908;2022-11-20T08:56:16;24.93;;;13.53;;
1993;SDS011;998;49.906;10.908;2022-11-20T08:58:44;21.80;;;13.23;;
1993;SDS011;998;49.906;10.908;2022-11-20T09:01:11;23.87;;;14.07;;
1993;SDS011;998;49.906;10.908;2022-11-20T09:03:39;23.17;;;14.07;;
1993;SDS011;998;49.906;10.908;2022-11-20T09:06:07;23.33;;;13.53;;
1993;SDS011;998;49.906;10.908;2022-11-20T09:08:36;23.00;;;13.30;;
1993;SDS011;998;49.906;10.908;2022-11-20T09:11:03;21.73;;;13.87;;
1993;SDS011;998;49.906;10.908;2022-11-20T09:13:31;22.27;;;14.17;;
1993;SDS011;998;49.906;10.908;2022-11-20T09:16:00;26.47;;;14.90;;
1993;SDS011;998;49.906;10.908;2022-11-20T09:18:29;28.17;;;15.43;;
1993;SDS011;998;49.906;10.908;2022-11-20T09:20:58;28.57;;;14.90;;
1993;SDS011;998;49.906;10.908;2022-11-20T09:23:26;24.70;;;14.73;;
1993;SDS011;998;49.906;10.908;2022-11-20T09:25:56;28.00;;;15.27;;
1993;SDS011;998;49.906;10.908;2022-11-20T09:28:24;24.63;;;16.47;;
1993;SDS011;998;49.906;10.908;2022-11-20T09:30:53;29.20;;;16.10;;
1993;SDS011;998;49.906;10.908;2022-11-20T09:33:20;28.80;;;15.23;;
1993;SDS011;998;49.906;10.908;2022-11-20T09:35:48;29.20;;;15.70;;
1993;SDS011;998;49.906;10.908;2022-11-20T09:38:15;31.27;;;14.73;;
1993;SDS011;998;49.906;10.908;2022-11-20T09:40:44;28.10;;;16.10;;
1993;SDS011;998;49.906;10.908;2022-11-20T09:43:18;26.37;;;15.93;;
1993;SDS011;998;49.906;10.908;2022-11-20T09:45:55;33.03;;;15.20;;
1993;SDS011;998;49.906;10.908;2022-11-20T09:48:36;28.50;;;16.20;;
1993;SDS011;998;49.906;10.908;2022-11-20T09:51:18;24.00;;;14.77;;
1993;SDS011;998;49.906;10.908;2022-11-20T09:53:59;25.60;;;13.83;;
1993;SDS011;998;49.906;10.908;2022-11-20T09:56:33;25.33;;;15.57;;
1993;SDS011;998;49.906;10.908;2022-11-20T09:59:05;30.23;;;16.43;;
1993;SDS011;998;49.906;10.908;2022-11-20T10:01:39;27.70;;;14.43;;
1993;SDS011;998;49.906;10.908;2022-11-20T10:04:10;28.67;;;15.87;;
1993;SDS011;998;49.906;10.908;2022-11-20T10:06:43;26.07;;;15.20;;
1993;SDS011;998;49.906;10.908;2022-11-20T10:09:20;34.30;;;15.43;;
1993;SDS011;998;49.906;10.908;2022-11-20T10:11:56;28.30;;;15.90;;
1993;SDS011;998;49.906;10.908;2022-11-20T10:14:37;26.20;;;16.70;;
1993;SDS011;998;49.906;10.908;2022-11-20T10:17:15;30.90;;;17.57;;
1993;SDS011;998;49.906;10.908;2022-11-20T10:19:53;31.33;;;17.37;;
1993;SDS011;998;49.906;10.908;2022-11-20T10:22:33;29.73;;;18.30;;
1993;SDS011;998;49.906;10.908;2022-11-20T10:25:13;26.80;;;15.80;;
1993;SDS011;998;49.906;10.908;2022-11-20T10:27:50;27.13;;;16.27;;
1993;SDS011;998;49.906;10.908;2022-11-20T10:30:32;24.63;;;14.30;;
1993;SDS011;998;49.906;10.908;2022-11-20T10:33:04;29.90;;;16.27;;
1993;SDS011;998;49.906;10.908;2022-11-20T10:35:40;30.67;;;18.33;;
1993;SDS011;998;49.906;10.908;2022-11-20T10:38:12;27.67;;;17.90;;
1993;SDS011;998;49.906;10.908;2022-11-20T10:40:46;30.77;;;21.20;;
1993;SDS011;998;49.906;10.908;2022-11-20T10:43:17;34.17;;;17.80;;
1993;SDS011;998;49.906;10.908;2022-11-20T10:45:53;34.40;;;18.03;;
1993;SDS011;998;49.906;10.908;2022-11-20T10:48:24;27.87;;;16.73;;
1993;SDS011;998;49.906;10.908;2022-11-20T10:53:42;31.13;;;19.37;;
1993;SDS011;998;49.906;10.908;2022-11-20T10:56:21;26.47;;;16.80;;
1993;SDS011;998;49.906;10.908;2022-11-20T10:59:03;27.87;;;16.77;;
1993;SDS011;998;49.906;10.908;2022-11-20T11:01:49;30.50;;;18.40;;
1993;SDS011;998;49.906;10.908;2022-11-20T11:04:26;33.67;;;18.40;;
1993;SDS011;998;49.906;10.908;2022-11-20T11:07:03;36.77;;;18.97;;
1993;SDS011;998;49.906;10.908;2022-11-20T11:09:35;31.97;;;19.73;;
1993;SDS011;998;49.906;10.908;2022-11-20T11:12:07;36.77;;;17.97;;
1993;SDS011;998;49.906;10.908;2022-11-20T11:14:44;34.63;;;20.60;;
1993;SDS011;998;49.906;10.908;2022-11-20T11:17:25;35.40;;;19.10;;
1993;SDS011;998;49.906;10.908;2022-11-20T11:20:02;30.50;;;17.03;;
1993;SDS011;998;49.906;10.908;2022-11-20T11:22:32;32.80;;;20.10;;
1993;SDS011;998;49.906;10.908;2022-11-20T11:25:00;44.07;;;20.13;;
1993;SDS011;998;49.906;10.908;2022-11-20T11:27:28;32.70;;;18.83;;
1993;SDS011;998;49.906;10.908;2022-11-20T11:30:11;40.63;;;21.63;;
1993;SDS011;998;49.906;10.908;2022-11-20T11:32:42;33.27;;;18.67;;
1993;SDS011;998;49.906;10.908;2022-11-20T11:35:23;41.77;;;20.80;;
1993;SDS011;998;49.906;10.908;2022-11-20T11:37:52;30.60;;;18.53;;
1993;SDS011;998;49.906;10.908;2022-11-20T11:40:28;37.27;;;19.47;;
1993;SDS011;998;49.906;10.908;2022-11-20T11:42:59;32.23;;;18.50;;
1993;SDS011;998;49.906;10.908;2022-11-20T11:45:28;32.70;;;20.00;;
1993;SDS011;998;49.906;10.908;2022-11-20T11:47:57;32.57;;;17.97;;
1993;SDS011;998;49.906;10.908;2022-11-20T11:50:28;31.63;;;20.90;;
1993;SDS011;998;49.906;10.908;2022-11-20T11:53:03;29.60;;;18.23;;
1993;SDS011;998;49.906;10.908;2022-11-20T11:55:36;30.20;;;17.43;;
1993;SDS011;998;49.906;10.908;2022-11-20T11:58:14;30.67;;;20.43;;
1993;SDS011;998;49.906;10.908;2022-11-20T12:00:51;38.33;;;19.60;;
1993;SDS011;998;49.906;10.908;2022-11-20T12:03:27;35.03;;;18.07;;
1993;SDS011;998;49.906;10.908;2022-11-20T12:06:01;33.60;;;20.47;;
1993;SDS011;998;49.906;10.908;2022-11-20T12:08:43;32.20;;;18.30;;
1993;SDS011;998;49.906;10.908;2022-11-20T12:11:14;30.30;;;17.80;;
1993;SDS011;998;49.906;10.908;2022-11-20T12:13:48;26.13;;;16.13;;
1993;SDS011;998;49.906;10.908;2022-11-20T12:16:20;29.77;;;15.90;;
1993;SDS011;998;49.906;10.908;2022-11-20T12:18:49;33.60;;;19.47;;
1993;SDS011;998;49.906;10.908;2022-11-20T12:21:19;23.90;;;14.67;;
1993;SDS011;998;49.906;10.908;2022-11-20T12:23:56;26.77;;;15.57;;
1993;SDS011;998;49.906;10.908;2022-11-20T12:26:50;31.50;;;16.50;;
1993;SDS011;998;49.906;10.908;2022-11-20T12:29:28;27.67;;;16.70;;
1993;SDS011;998;49.906;10.908;2022-11-20T12:32:15;23.10;;;13.30;;
1993;SDS011;998;49.906;10.908;2022-11-20T12:35:07;27.90;;;12.70;;
1993;SDS011;998;49.906;10.908;2022-11-20T12:37:52;21.73;;;13.10;;
1993;SDS011;998;49.906;10.908;2022-11-20T12:40:35;17.20;;;10.07;;
1993;SDS011;998;49.906;10.908;2022-11-20T12:43:12;20.47;;;12.10;;
1993;SDS011;998;49.906;10.908;2022-11-20T12:46:05;19.97;;;11.80;;
1993;SDS011;998;49.906;10.908;2022-11-20T12:52:06;19.60;;;10.10;;
1993;SDS011;998;49.906;10.908;2022-11-20T12:54:49;19.87;;;10.43;;
1993;SDS011;998;49.906;10.908;2022-11-20T12:57:42;26.03;;;14.77;;
1993;SDS011;998;49.906;10.908;2022-11-20T13:00:16;23.87;;;13.20;;
1993;SDS011;998;49.906;10.908;2022-11-20T13:02:58;24.93;;;13.53;;
1993;SDS011;998;49.906;10.908;2022-11-20T13:05:37;31.83;;;14.70;;
1993;SDS011;998;49.906;10.908;2022-11-20T13:08:15;24.17;;;13.10;;
1993;SDS011;998;49.906;10.908;2022-11-20T13:10:48;21.83;;;12.80;;
1993;SDS011;998;49.906;10.908;2022-11-20T13:13:23;21.97;;;12.93;;
1993;SDS011;998;49.906;10.908;2022-11-20T13:15:58;22.60;;;13.30;;
1993;SDS011;998;49.906;10.908;2022-11-20T13:18:33;20.00;;;12.10;;
1993;SDS011;998;49.906;10.908;2022-11-20T13:21:13;21.70;;;12.47;;
1993;SDS011;998;49.906;10.908;2022-11-20T13:23:43;20.03;;;12.17;;
1993;SDS011;998;49.906;10.908;2022-11-20T13:26:15;23.90;;;13.87;;
1993;SDS011;998;49.906;10.908;2022-11-20T13:28:46;19.40;;;11.67;;
1993;SDS011;998;49.906;10.908;2022-11-20T13:31:28;20.60;;;12.20;;
1993;SDS011;998;49.906;10.908;2022-11-20T13:34:02;20.27;;;12.53;;
1993;SDS011;998;49.906;10.908;2022-11-20T13:36:32;17.50;;;11.50;;
1993;SDS011;998;49.906;10.908;2022-11-20T13:39:02;20.40;;;13.23;;
1993;SDS011;998;49.906;10.908;2022-11-20T13:41:30;24.37;;;13.43;;
1993;SDS011;998;49.906;10.908;2022-11-20T13:44:06;18.27;;;11.50;;
1993;SDS011;998;49.906;10.908;2022-11-20T13:46:39;22.00;;;12.27;;
1993;SDS011;998;49.906;10.908;2022-11-20T13:49:09;24.10;;;12.10;;
1993;SDS011;998;49.906;10.908;2022-11-20T13:51:47;23.87;;;14.07;;
1993;SDS011;998;49.906;10.908;2022-11-20T13:54:30;25.03;;;13.50;;
1993;SDS011;998;49.906;10.908;2022-11-20T13:57:22;25.13;;;13.63;;
1993;SDS011;998;49.906;10.908;2022-11-20T14:00:16;25.53;;;14.77;;
1993;SDS011;998;49.906;10.908;2022-11-20T14:02:46;21.73;;;13.37;;
1993;SDS011;998;49.906;10.908;2022-11-20T14:05:26;22.53;;;13.97;;
1993;SDS011;998;49.906;10.908;2022-11-20T14:07:54;27.57;;;15.23;;
1993;SDS011;998;49.906;10.908;2022-11-20T14:10:26;23.87;;;13.10;;
1993;SDS011;998;49.906;10.908;2022-11-20T14:12:54;28.20;;;14.93;;
1993;SDS011;998;49.906;10.908;2022-11-20T14:15:24;23.07;;;14.20;;
1993;SDS011;998;49.906;10.908;2022-11-20T14:17:54;23.40;;;12.20;;
1993;SDS011;998;49.906;10.908;2022-11-20T14:20:22;21.00;;;11.90;;
1993;SDS011;998;49.906;10.908;2022-11-20T14:22:53;18.07;;;10.30;;
1993;SDS011;998;49.906;10.908;2022-11-20T14:25:22;18.70;;;10.57;;
1993;SDS011;998;49.906;10.908;2022-11-20T14:27:53;17.13;;;10.90;;
1993;SDS011;998;49.906;10.908;2022-11-20T14:30:22;17.00;;;10.03;;
1993;SDS011;998;49.906;10.908;2022-11-20T14:32:50;18.83;;;11.40;;
1993;SDS011;998;49.906;10.908;2022-11-20T14:35:21;15.90;;;9.90;;
1993;SDS011;998;49.906;10.908;2022-11-20T14:37:52;16.53;;;9.50;;
1993;SDS011;998;49.906;10.908;2022-11-20T14:40:28;17.63;;;10.20;;
1993;SDS011;998;49.906;10.908;2022-11-20T14:42:58;17.43;;;9.83;;
1993;SDS011;998;49.906;10.908;2022-11-20T14:45:26;18.00;;;10.80;;
1993;SDS011;998;49.906;10.908;2022-11-20T14:47:55;17.77;;;9.57;;
1993;SDS011;998;49.906;10.908;2022-11-20T14:50:24;16.83;;;9.70;;
1993;SDS011;998;49.906;10.908;2022-11-20T14:52:53;19.40;;;9.10;;
1993;SDS011;998;49.906;10.908;2022-11-20T14:55:25;15.93;;;9.63;;
1993;SDS011;998;49.906;10.908;2022-11-20T14:57:56;14.40;;;8.83;;
1993;SDS011;998;49.906;10.908;2022-11-20T15:00:25;14.80;;;9.70;;
1993;SDS011;998;49.906;10.908;2022-11-20T15:02:53;19.10;;;10.27;;
1993;SDS011;998;49.906;10.908;2022-11-20T15:05:21;16.50;;;9.47;;
1993;SDS011;998;49.906;10.908;2022-11-20T15:07:50;17.00;;;11.10;;
1993;SDS011;998;49.906;10.908;2022-11-20T15:10:22;14.70;;;9.27;;
1993;SDS011;998;49.906;10.908;2022-11-20T15:12:59;18.70;;;9.87;;
1993;SDS011;998;49.906;10.908;2022-11-20T15:15:29;17.80;;;9.53;;
1993;SDS011;998;49.906;10.908;2022-11-20T15:17:59;17.60;;;10.90;;
1993;SDS011;998;49.906;10.908;2022-11-20T15:20:28;15.20;;;9.00;;